sensor_id;sensor_type;location;lat;lon;timestamp;P1;durP1;ratioP1;P2;durP2;ratioP2
51236;SDS011;37312;47.550;18.818;2022-07-25T00:01:46;6.15;;;5.72;;
51236;SDS011;37312;47.550;18.818;2022-07-25T00:04:12;5.90;;;5.37;;
51236;SDS011;37312;47.550;18.818;2022-07-25T00:06:38;6.47;;;5.87;;
51236;SDS011;37312;47.550;18.818;2022-07-25T00:09:06;6.45;;;5.43;;
51236;SDS011;37312;47.550;18.818;2022-07-25T00:11:32;6.40;;;5.10;;
51236;SDS011;37312;47.550;18.818;2022-07-25T00:13:59;7.20;;;6.60;;
51236;SDS011;37312;47.550;18.818;2022-07-25T00:16:24;9.93;;;6.78;;
51236;SDS011;37312;47.550;18.818;2022-07-25T00:18:50;6.75;;;6.20;;
51236;SDS011;37312;47.550;18.818;2022-07-25T00:21:16;5.65;;;5.05;;
51236;SDS011;37312;47.550;18.818;2022-07-25T00:23:42;6.00;;;5.60;;
51236;SDS011;37312;47.550;18.818;2022-07-25T00:26:08;7.12;;;6.53;;
51236;SDS011;37312;47.550;18.818;2022-07-25T00:28:34;6.18;;;5.65;;
51236;SDS011;37312;47.550;18.818;2022-07-25T00:31:00;6.03;;;5.62;;
51236;SDS011;37312;47.550;18.818;2022-07-25T00:33:26;6.18;;;5.68;;
51236;SDS011;37312;47.550;18.818;2022-07-25T00:35:52;6.75;;;6.07;;
51236;SDS011;37312;47.550;18.818;2022-07-25T00:38:18;5.93;;;5.35;;
51236;SDS011;37312;47.550;18.818;2022-07-25T00:40:44;6.43;;;5.87;;
51236;SDS011;37312;47.550;18.818;2022-07-25T00:43:10;7.05;;;5.70;;
51236;SDS011;37312;47.550;18.818;2022-07-25T00:45:36;5.28;;;4.78;;
51236;SDS011;37312;47.550;18.818;2022-07-25T00:48:02;4.93;;;4.62;;
51236;SDS011;37312;47.550;18.818;2022-07-25T00:50:28;5.47;;;5.03;;
51236;SDS011;37312;47.550;18.818;2022-07-25T00:52:55;5.90;;;5.35;;
51236;SDS011;37312;47.550;18.818;2022-07-25T00:55:21;6.82;;;6.22;;
51236;SDS011;37312;47.550;18.818;2022-07-25T00:57:47;6.57;;;5.40;;
51236;SDS011;37312;47.550;18.818;2022-07-25T01:00:14;5.07;;;4.78;;
51236;SDS011;37312;47.550;18.818;2022-07-25T01:02:41;6.40;;;5.87;;
51236;SDS011;37312;47.550;18.818;2022-07-25T01:05:07;6.00;;;5.05;;
51236;SDS011;37312;47.550;18.818;2022-07-25T01:07:33;11.38;;;5.87;;
51236;SDS011;37312;47.550;18.818;2022-07-25T01:09:59;6.72;;;5.75;;
51236;SDS011;37312;47.550;18.818;2022-07-25T01:12:26;5.75;;;5.25;;
51236;SDS011;37312;47.550;18.818;2022-07-25T01:14:51;6.22;;;5.72;;
51236;SDS011;37312;47.550;18.818;2022-07-25T01:17:17;5.95;;;5.47;;
51236;SDS011;37312;47.550;18.818;2022-07-25T01:19:43;6.65;;;6.15;;
51236;SDS011;37312;47.550;18.818;2022-07-25T01:22:10;6.85;;;6.15;;
51236;SDS011;37312;47.550;18.818;2022-07-25T01:24:37;6.45;;;5.45;;
51236;SDS011;37312;47.550;18.818;2022-07-25T01:27:04;5.37;;;4.93;;
51236;SDS011;37312;47.550;18.818;2022-07-25T01:29:30;6.10;;;5.60;;
51236;SDS011;37312;47.550;18.818;2022-07-25T01:31:56;6.20;;;5.60;;
51236;SDS011;37312;47.550;18.818;2022-07-25T01:34:22;8.07;;;7.28;;
51236;SDS011;37312;47.550;18.818;2022-07-25T01:36:48;8.95;;;5.87;;
51236;SDS011;37312;47.550;18.818;2022-07-25T01:39:14;6.70;;;6.10;;
51236;SDS011;37312;47.550;18.818;2022-07-25T01:41:40;6.00;;;5.60;;
51236;SDS011;37312;47.550;18.818;2022-07-25T01:44:05;6.85;;;6.25;;
51236;SDS011;37312;47.550;18.818;2022-07-25T01:46:31;6.25;;;5.55;;
51236;SDS011;37312;47.550;18.818;2022-07-25T01:48:58;6.75;;;6.03;;
51236;SDS011;37312;47.550;18.818;2022-07-25T01:51:24;5.82;;;5.25;;
51236;SDS011;37312;47.550;18.818;2022-07-25T01:53:49;6.35;;;5.78;;
51236;SDS011;37312;47.550;18.818;2022-07-25T01:56:16;7.12;;;5.75;;
51236;SDS011;37312;47.550;18.818;2022-07-25T01:58:41;6.47;;;5.97;;
51236;SDS011;37312;47.550;18.818;2022-07-25T02:01:07;5.20;;;4.80;;
51236;SDS011;37312;47.550;18.818;2022-07-25T02:03:33;6.43;;;5.82;;
51236;SDS011;37312;47.550;18.818;2022-07-25T02:06:03;6.15;;;5.65;;
51236;SDS011;37312;47.550;18.818;2022-07-25T02:08:31;5.93;;;5.40;;
51236;SDS011;37312;47.550;18.818;2022-07-25T02:10:58;6.62;;;5.93;;
51236;SDS011;37312;47.550;18.818;2022-07-25T02:13:25;6.78;;;6.15;;
51236;SDS011;37312;47.550;18.818;2022-07-25T02:15:51;6.20;;;5.70;;
51236;SDS011;37312;47.550;18.818;2022-07-25T02:18:17;6.40;;;5.87;;
51236;SDS011;37312;47.550;18.818;2022-07-25T02:20:43;6.00;;;5.47;;
51236;SDS011;37312;47.550;18.818;2022-07-25T02:23:09;6.43;;;5.93;;
51236;SDS011;37312;47.550;18.818;2022-07-25T02:25:35;7.32;;;6.68;;
51236;SDS011;37312;47.550;18.818;2022-07-25T02:28:01;7.18;;;6.45;;
51236;SDS011;37312;47.550;18.818;2022-07-25T02:30:27;8.32;;;7.15;;
51236;SDS011;37312;47.550;18.818;2022-07-25T02:32:53;7.53;;;6.78;;
51236;SDS011;37312;47.550;18.818;2022-07-25T02:35:19;6.78;;;6.15;;
51236;SDS011;37312;47.550;18.818;2022-07-25T02:37:46;7.65;;;7.05;;
51236;SDS011;37312;47.550;18.818;2022-07-25T02:40:12;5.55;;;5.15;;
51236;SDS011;37312;47.550;18.818;2022-07-25T02:42:38;6.62;;;6.12;;
51236;SDS011;37312;47.550;18.818;2022-07-25T02:45:04;6.95;;;6.35;;
51236;SDS011;37312;47.550;18.818;2022-07-25T02:47:30;6.12;;;5.62;;
51236;SDS011;37312;47.550;18.818;2022-07-25T02:49:56;7.18;;;6.47;;
51236;SDS011;37312;47.550;18.818;2022-07-25T02:54:48;8.07;;;6.87;;
51236;SDS011;37312;47.550;18.818;2022-07-25T02:57:15;6.85;;;6.25;;
51236;SDS011;37312;47.550;18.818;2022-07-25T02:59:41;6.75;;;6.15;;
51236;SDS011;37312;47.550;18.818;2022-07-25T03:02:07;5.90;;;5.30;;
51236;SDS011;37312;47.550;18.818;2022-07-25T03:04:33;7.60;;;6.82;;
51236;SDS011;37312;47.550;18.818;2022-07-25T03:06:59;5.80;;;5.30;;
51236;SDS011;37312;47.550;18.818;2022-07-25T03:09:25;6.95;;;6.43;;
51236;SDS011;37312;47.550;18.818;2022-07-25T03:11:51;6.62;;;6.05;;
51236;SDS011;37312;47.550;18.818;2022-07-25T03:14:17;7.53;;;6.82;;
51236;SDS011;37312;47.550;18.818;2022-07-25T03:19:09;10.23;;;6.80;;
51236;SDS011;37312;47.550;18.818;2022-07-25T03:21:37;8.20;;;6.95;;
51236;SDS011;37312;47.550;18.818;2022-07-25T03:26:29;7.55;;;6.95;;
51236;SDS011;37312;47.550;18.818;2022-07-25T03:28:55;7.37;;;6.65;;
51236;SDS011;37312;47.550;18.818;2022-07-25T03:31:21;7.47;;;6.90;;
51236;SDS011;37312;47.550;18.818;2022-07-25T03:36:13;7.32;;;6.80;;
51236;SDS011;37312;47.550;18.818;2022-07-25T03:38:39;8.68;;;7.85;;
51236;SDS011;37312;47.550;18.818;2022-07-25T03:41:05;6.95;;;6.40;;
51236;SDS011;37312;47.550;18.818;2022-07-25T03:43:31;7.85;;;7.25;;
51236;SDS011;37312;47.550;18.818;2022-07-25T03:45:57;9.07;;;7.68;;
51236;SDS011;37312;47.550;18.818;2022-07-25T03:50:49;11.25;;;6.72;;
51236;SDS011;37312;47.550;18.818;2022-07-25T03:53:15;12.43;;;8.57;;
51236;SDS011;37312;47.550;18.818;2022-07-25T03:58:06;7.72;;;7.03;;
51236;SDS011;37312;47.550;18.818;2022-07-25T04:00:32;9.23;;;6.40;;
51236;SDS011;37312;47.550;18.818;2022-07-25T04:05:24;8.70;;;7.95;;
51236;SDS011;37312;47.550;18.818;2022-07-25T04:07:50;7.60;;;6.90;;
51236;SDS011;37312;47.550;18.818;2022-07-25T04:12:42;8.45;;;7.70;;
51236;SDS011;37312;47.550;18.818;2022-07-25T04:15:08;9.13;;;7.87;;
51236;SDS011;37312;47.550;18.818;2022-07-25T04:17:35;8.40;;;7.60;;
51236;SDS011;37312;47.550;18.818;2022-07-25T04:22:26;8.95;;;7.15;;
51236;SDS011;37312;47.550;18.818;2022-07-25T04:24:52;8.52;;;7.68;;
51236;SDS011;37312;47.550;18.818;2022-07-25T04:27:19;8.30;;;7.47;;
51236;SDS011;37312;47.550;18.818;2022-07-25T04:29:44;7.50;;;6.87;;
51236;SDS011;37312;47.550;18.818;2022-07-25T04:32:10;7.95;;;7.25;;
51236;SDS011;37312;47.550;18.818;2022-07-25T04:34:38;9.20;;;6.05;;
51236;SDS011;37312;47.550;18.818;2022-07-25T04:37:03;7.97;;;7.18;;
51236;SDS011;37312;47.550;18.818;2022-07-25T04:39:30;11.98;;;7.25;;
51236;SDS011;37312;47.550;18.818;2022-07-25T04:41:56;6.57;;;5.82;;
51236;SDS011;37312;47.550;18.818;2022-07-25T04:44:22;8.27;;;7.57;;
51236;SDS011;37312;47.550;18.818;2022-07-25T04:46:48;6.62;;;5.60;;
51236;SDS011;37312;47.550;18.818;2022-07-25T04:49:14;13.27;;;6.65;;
51236;SDS011;37312;47.550;18.818;2022-07-25T04:51:40;7.07;;;6.43;;
51236;SDS011;37312;47.550;18.818;2022-07-25T04:54:06;7.68;;;7.07;;
51236;SDS011;37312;47.550;18.818;2022-07-25T04:56:32;6.82;;;6.22;;
51236;SDS011;37312;47.550;18.818;2022-07-25T04:58:58;10.50;;;6.55;;
51236;SDS011;37312;47.550;18.818;2022-07-25T05:01:23;6.45;;;5.85;;
51236;SDS011;37312;47.550;18.818;2022-07-25T05:03:49;6.72;;;6.15;;
51236;SDS011;37312;47.550;18.818;2022-07-25T05:06:16;6.72;;;6.07;;
51236;SDS011;37312;47.550;18.818;2022-07-25T05:08:42;6.05;;;5.50;;
51236;SDS011;37312;47.550;18.818;2022-07-25T05:11:08;4.90;;;4.57;;
51236;SDS011;37312;47.550;18.818;2022-07-25T05:13:34;5.72;;;5.32;;
51236;SDS011;37312;47.550;18.818;2022-07-25T05:16:00;5.68;;;4.97;;
51236;SDS011;37312;47.550;18.818;2022-07-25T05:18:27;5.07;;;4.57;;
51236;SDS011;37312;47.550;18.818;2022-07-25T05:20:53;5.30;;;4.57;;
51236;SDS011;37312;47.550;18.818;2022-07-25T05:23:19;6.47;;;5.93;;
51236;SDS011;37312;47.550;18.818;2022-07-25T05:25:45;6.80;;;5.82;;
51236;SDS011;37312;47.550;18.818;2022-07-25T05:28:11;4.53;;;4.22;;
51236;SDS011;37312;47.550;18.818;2022-07-25T05:30:39;5.57;;;5.05;;
51236;SDS011;37312;47.550;18.818;2022-07-25T05:33:05;6.68;;;4.90;;
51236;SDS011;37312;47.550;18.818;2022-07-25T05:35:31;5.28;;;4.87;;
51236;SDS011;37312;47.550;18.818;2022-07-25T05:37:57;9.25;;;5.07;;
51236;SDS011;37312;47.550;18.818;2022-07-25T05:40:23;7.53;;;5.57;;
51236;SDS011;37312;47.550;18.818;2022-07-25T05:42:49;7.20;;;5.03;;
51236;SDS011;37312;47.550;18.818;2022-07-25T05:45:15;7.50;;;4.70;;
51236;SDS011;37312;47.550;18.818;2022-07-25T05:47:41;9.50;;;5.75;;
51236;SDS011;37312;47.550;18.818;2022-07-25T05:50:07;4.90;;;4.40;;
51236;SDS011;37312;47.550;18.818;2022-07-25T05:52:33;5.55;;;4.78;;
51236;SDS011;37312;47.550;18.818;2022-07-25T05:54:59;8.10;;;4.78;;
51236;SDS011;37312;47.550;18.818;2022-07-25T05:57:25;5.75;;;5.15;;
51236;SDS011;37312;47.550;18.818;2022-07-25T05:59:52;5.35;;;3.45;;
51236;SDS011;37312;47.550;18.818;2022-07-25T06:02:17;5.25;;;4.82;;
51236;SDS011;37312;47.550;18.818;2022-07-25T06:04:43;7.30;;;4.05;;
51236;SDS011;37312;47.550;18.818;2022-07-25T06:07:09;6.12;;;3.75;;
51236;SDS011;37312;47.550;18.818;2022-07-25T06:09:35;5.22;;;4.82;;
51236;SDS011;37312;47.550;18.818;2022-07-25T06:12:01;4.40;;;4.03;;
51236;SDS011;37312;47.550;18.818;2022-07-25T06:14:28;4.15;;;3.83;;
51236;SDS011;37312;47.550;18.818;2022-07-25T06:16:55;5.30;;;3.42;;
51236;SDS011;37312;47.550;18.818;2022-07-25T06:19:21;8.23;;;3.83;;
51236;SDS011;37312;47.550;18.818;2022-07-25T06:21:47;3.97;;;3.65;;
51236;SDS011;37312;47.550;18.818;2022-07-25T06:24:13;4.07;;;3.78;;
51236;SDS011;37312;47.550;18.818;2022-07-25T06:26:39;5.30;;;3.30;;
51236;SDS011;37312;47.550;18.818;2022-07-25T06:29:05;4.12;;;3.05;;
51236;SDS011;37312;47.550;18.818;2022-07-25T06:31:31;5.53;;;4.32;;
51236;SDS011;37312;47.550;18.818;2022-07-25T06:33:57;4.05;;;3.75;;
51236;SDS011;37312;47.550;18.818;2022-07-25T06:36:23;5.12;;;4.22;;
51236;SDS011;37312;47.550;18.818;2022-07-25T06:38:49;3.42;;;3.22;;
51236;SDS011;37312;47.550;18.818;2022-07-25T06:41:15;3.87;;;3.55;;
51236;SDS011;37312;47.550;18.818;2022-07-25T06:43:41;3.72;;;3.53;;
51236;SDS011;37312;47.550;18.818;2022-07-25T06:46:07;11.93;;;3.87;;
51236;SDS011;37312;47.550;18.818;2022-07-25T06:48:34;3.45;;;2.85;;
51236;SDS011;37312;47.550;18.818;2022-07-25T06:51:00;6.60;;;3.97;;
51236;SDS011;37312;47.550;18.818;2022-07-25T06:53:25;4.40;;;3.33;;
51236;SDS011;37312;47.550;18.818;2022-07-25T06:55:51;4.35;;;3.42;;
51236;SDS011;37312;47.550;18.818;2022-07-25T06:58:18;6.35;;;3.50;;
51236;SDS011;37312;47.550;18.818;2022-07-25T07:00:44;4.40;;;3.55;;
51236;SDS011;37312;47.550;18.818;2022-07-25T07:03:10;4.10;;;3.78;;
51236;SDS011;37312;47.550;18.818;2022-07-25T07:05:36;4.30;;;3.70;;
51236;SDS011;37312;47.550;18.818;2022-07-25T07:08:04;4.35;;;3.75;;
51236;SDS011;37312;47.550;18.818;2022-07-25T07:10:30;7.18;;;4.10;;
51236;SDS011;37312;47.550;18.818;2022-07-25T07:13:03;6.05;;;3.42;;
51236;SDS011;37312;47.550;18.818;2022-07-25T07:15:34;3.62;;;3.35;;
51236;SDS011;37312;47.550;18.818;2022-07-25T07:18:01;4.18;;;3.78;;
51236;SDS011;37312;47.550;18.818;2022-07-25T07:20:27;4.10;;;3.70;;
51236;SDS011;37312;47.550;18.818;2022-07-25T07:22:54;4.32;;;3.75;;
51236;SDS011;37312;47.550;18.818;2022-07-25T07:25:20;3.55;;;3.35;;
51236;SDS011;37312;47.550;18.818;2022-07-25T07:27:48;4.00;;;3.70;;
51236;SDS011;37312;47.550;18.818;2022-07-25T07:30:18;4.28;;;3.97;;
51236;SDS011;37312;47.550;18.818;2022-07-25T07:32:44;5.30;;;4.28;;
51236;SDS011;37312;47.550;18.818;2022-07-25T07:35:10;5.28;;;4.18;;
51236;SDS011;37312;47.550;18.818;2022-07-25T07:37:37;4.68;;;4.10;;
51236;SDS011;37312;47.550;18.818;2022-07-25T07:40:03;3.47;;;3.28;;
51236;SDS011;37312;47.550;18.818;2022-07-25T07:42:46;4.07;;;3.78;;
51236;SDS011;37312;47.550;18.818;2022-07-25T07:48:20;6.30;;;4.90;;
51236;SDS011;37312;47.550;18.818;2022-07-25T07:50:46;4.35;;;4.00;;
51236;SDS011;37312;47.550;18.818;2022-07-25T07:53:12;5.47;;;4.57;;
51236;SDS011;37312;47.550;18.818;2022-07-25T07:55:38;7.07;;;4.50;;
51236;SDS011;37312;47.550;18.818;2022-07-25T07:58:13;6.10;;;3.83;;
51236;SDS011;37312;47.550;18.818;2022-07-25T08:00:41;7.75;;;4.55;;
51236;SDS011;37312;47.550;18.818;2022-07-25T08:03:09;4.22;;;3.53;;
51236;SDS011;37312;47.550;18.818;2022-07-25T08:05:36;4.60;;;4.30;;
51236;SDS011;37312;47.550;18.818;2022-07-25T08:08:05;4.07;;;3.75;;
51236;SDS011;37312;47.550;18.818;2022-07-25T08:10:36;3.95;;;3.70;;
51236;SDS011;37312;47.550;18.818;2022-07-25T08:13:11;4.32;;;3.67;;
51236;SDS011;37312;47.550;18.818;2022-07-25T08:15:40;6.90;;;3.75;;
51236;SDS011;37312;47.550;18.818;2022-07-25T08:18:10;4.03;;;3.40;;
51236;SDS011;37312;47.550;18.818;2022-07-25T08:20:36;4.78;;;3.25;;
51236;SDS011;37312;47.550;18.818;2022-07-25T08:23:03;5.37;;;4.18;;
51236;SDS011;37312;47.550;18.818;2022-07-25T08:25:32;4.53;;;4.12;;
51236;SDS011;37312;47.550;18.818;2022-07-25T08:28:00;5.43;;;3.75;;
51236;SDS011;37312;47.550;18.818;2022-07-25T08:30:26;4.80;;;4.28;;
51236;SDS011;37312;47.550;18.818;2022-07-25T08:32:54;4.87;;;3.90;;
51236;SDS011;37312;47.550;18.818;2022-07-25T08:35:23;4.45;;;4.05;;
51236;SDS011;37312;47.550;18.818;2022-07-25T08:37:50;5.82;;;4.25;;
51236;SDS011;37312;47.550;18.818;2022-07-25T08:40:17;3.40;;;3.20;;
51236;SDS011;37312;47.550;18.818;2022-07-25T08:42:44;4.45;;;4.15;;
51236;SDS011;37312;47.550;18.818;2022-07-25T08:45:11;5.18;;;4.78;;
51236;SDS011;37312;47.550;18.818;2022-07-25T08:47:39;5.43;;;4.93;;
51236;SDS011;37312;47.550;18.818;2022-07-25T08:50:10;4.43;;;4.10;;
51236;SDS011;37312;47.550;18.818;2022-07-25T08:52:38;6.97;;;3.65;;
51236;SDS011;37312;47.550;18.818;2022-07-25T08:55:04;4.55;;;4.15;;
51236;SDS011;37312;47.550;18.818;2022-07-25T08:57:33;5.32;;;4.93;;
51236;SDS011;37312;47.550;18.818;2022-07-25T09:00:01;5.50;;;5.05;;
51236;SDS011;37312;47.550;18.818;2022-07-25T09:02:29;4.82;;;4.20;;
51236;SDS011;37312;47.550;18.818;2022-07-25T09:04:56;4.30;;;4.00;;
51236;SDS011;37312;47.550;18.818;2022-07-25T09:07:56;4.40;;;3.70;;
51236;SDS011;37312;47.550;18.818;2022-07-25T09:10:25;6.05;;;3.40;;
51236;SDS011;37312;47.550;18.818;2022-07-25T09:13:26;5.20;;;4.80;;
51236;SDS011;37312;47.550;18.818;2022-07-25T09:15:48;4.22;;;3.92;;
51236;SDS011;37312;47.550;18.818;2022-07-25T09:18:16;4.55;;;4.20;;
51236;SDS011;37312;47.550;18.818;2022-07-25T09:20:51;14.02;;;4.55;;
51236;SDS011;37312;47.550;18.818;2022-07-25T09:26:06;10.02;;;4.93;;
51236;SDS011;37312;47.550;18.818;2022-07-25T09:28:40;4.90;;;3.92;;
51236;SDS011;37312;47.550;18.818;2022-07-25T09:31:08;5.47;;;4.00;;
51236;SDS011;37312;47.550;18.818;2022-07-25T09:33:42;4.60;;;4.20;;
51236;SDS011;37312;47.550;18.818;2022-07-25T09:36:13;7.35;;;4.40;;
51236;SDS011;37312;47.550;18.818;2022-07-25T09:38:39;5.10;;;4.72;;
51236;SDS011;37312;47.550;18.818;2022-07-25T09:41:15;4.65;;;4.25;;
51236;SDS011;37312;47.550;18.818;2022-07-25T09:43:41;4.93;;;4.47;;
51236;SDS011;37312;47.550;18.818;2022-07-25T09:46:08;7.30;;;4.68;;
51236;SDS011;37312;47.550;18.818;2022-07-25T09:48:38;6.75;;;3.75;;
51236;SDS011;37312;47.550;18.818;2022-07-25T09:51:08;4.75;;;4.35;;
51236;SDS011;37312;47.550;18.818;2022-07-25T09:53:34;5.62;;;3.97;;
51236;SDS011;37312;47.550;18.818;2022-07-25T09:56:00;4.93;;;4.47;;
51236;SDS011;37312;47.550;18.818;2022-07-25T09:58:26;5.65;;;4.68;;
51236;SDS011;37312;47.550;18.818;2022-07-25T10:00:55;5.60;;;4.37;;
51236;SDS011;37312;47.550;18.818;2022-07-25T10:03:28;5.45;;;4.45;;
51236;SDS011;37312;47.550;18.818;2022-07-25T10:08:39;4.55;;;4.25;;
51236;SDS011;37312;47.550;18.818;2022-07-25T10:11:21;4.95;;;4.65;;
51236;SDS011;37312;47.550;18.818;2022-07-25T10:13:51;5.53;;;3.97;;
51236;SDS011;37312;47.550;18.818;2022-07-25T10:16:23;4.37;;;4.07;;
51236;SDS011;37312;47.550;18.818;2022-07-25T10:18:57;4.93;;;4.53;;
51236;SDS011;37312;47.550;18.818;2022-07-25T10:21:24;6.47;;;4.85;;
51236;SDS011;37312;47.550;18.818;2022-07-25T10:23:57;4.95;;;4.43;;
51236;SDS011;37312;47.550;18.818;2022-07-25T10:26:29;5.93;;;4.45;;
51236;SDS011;37312;47.550;18.818;2022-07-25T10:28:56;4.35;;;4.05;;
51236;SDS011;37312;47.550;18.818;2022-07-25T10:31:23;4.53;;;4.15;;
51236;SDS011;37312;47.550;18.818;2022-07-25T10:33:57;4.87;;;4.18;;
51236;SDS011;37312;47.550;18.818;2022-07-25T10:36:28;5.43;;;4.82;;
51236;SDS011;37312;47.550;18.818;2022-07-25T10:39:07;5.55;;;4.65;;
51236;SDS011;37312;47.550;18.818;2022-07-25T10:41:51;6.62;;;4.70;;
51236;SDS011;37312;47.550;18.818;2022-07-25T10:44:20;5.47;;;4.97;;
51236;SDS011;37312;47.550;18.818;2022-07-25T10:46:46;4.85;;;4.32;;
51236;SDS011;37312;47.550;18.818;2022-07-25T10:49:20;4.60;;;4.00;;
51236;SDS011;37312;47.550;18.818;2022-07-25T10:51:56;5.82;;;5.22;;
51236;SDS011;37312;47.550;18.818;2022-07-25T10:54:24;5.37;;;4.97;;
51236;SDS011;37312;47.550;18.818;2022-07-25T10:56:54;6.22;;;4.75;;
51236;SDS011;37312;47.550;18.818;2022-07-25T10:59:35;7.12;;;4.00;;
51236;SDS011;37312;47.550;18.818;2022-07-25T11:02:03;4.85;;;4.45;;
51236;SDS011;37312;47.550;18.818;2022-07-25T11:04:35;5.47;;;4.10;;
51236;SDS011;37312;47.550;18.818;2022-07-25T11:07:08;4.53;;;4.00;;
51236;SDS011;37312;47.550;18.818;2022-07-25T11:09:34;4.87;;;4.40;;
51236;SDS011;37312;47.550;18.818;2022-07-25T11:12:01;7.97;;;4.82;;
51236;SDS011;37312;47.550;18.818;2022-07-25T11:14:28;3.97;;;3.67;;
51236;SDS011;37312;47.550;18.818;2022-07-25T11:17:08;5.05;;;3.80;;
51236;SDS011;37312;47.550;18.818;2022-07-25T11:19:40;9.25;;;3.75;;
51236;SDS011;37312;47.550;18.818;2022-07-25T11:22:18;6.78;;;4.15;;
51236;SDS011;37312;47.550;18.818;2022-07-25T11:24:44;3.45;;;3.15;;
51236;SDS011;37312;47.550;18.818;2022-07-25T11:27:18;8.00;;;3.78;;
51236;SDS011;37312;47.550;18.818;2022-07-25T11:29:46;6.65;;;4.35;;
51236;SDS011;37312;47.550;18.818;2022-07-25T11:32:12;4.37;;;3.97;;
51236;SDS011;37312;47.550;18.818;2022-07-25T11:34:40;12.98;;;3.70;;
51236;SDS011;37312;47.550;18.818;2022-07-25T11:37:09;4.10;;;3.80;;
51236;SDS011;37312;47.550;18.818;2022-07-25T11:39:37;3.80;;;3.50;;
51236;SDS011;37312;47.550;18.818;2022-07-25T11:42:12;8.55;;;4.05;;
51236;SDS011;37312;47.550;18.818;2022-07-25T11:44:46;3.22;;;3.00;;
51236;SDS011;37312;47.550;18.818;2022-07-25T11:47:24;3.30;;;3.10;;
51236;SDS011;37312;47.550;18.818;2022-07-25T11:49:52;3.28;;;2.97;;
51236;SDS011;37312;47.550;18.818;2022-07-25T11:52:26;3.55;;;3.25;;
51236;SDS011;37312;47.550;18.818;2022-07-25T11:55:10;4.12;;;3.80;;
51236;SDS011;37312;47.550;18.818;2022-07-25T11:57:40;5.25;;;3.30;;
51236;SDS011;37312;47.550;18.818;2022-07-25T12:00:21;7.25;;;3.75;;
51236;SDS011;37312;47.550;18.818;2022-07-25T12:02:47;3.65;;;3.35;;
51236;SDS011;37312;47.550;18.818;2022-07-25T12:05:15;5.80;;;3.62;;
51236;SDS011;37312;47.550;18.818;2022-07-25T12:07:46;3.80;;;3.30;;
51236;SDS011;37312;47.550;18.818;2022-07-25T12:10:17;3.97;;;3.60;;
51236;SDS011;37312;47.550;18.818;2022-07-25T12:12:50;4.72;;;3.78;;
51236;SDS011;37312;47.550;18.818;2022-07-25T12:15:18;3.75;;;3.45;;
51236;SDS011;37312;47.550;18.818;2022-07-25T12:17:47;3.33;;;3.12;;
51236;SDS011;37312;47.550;18.818;2022-07-25T12:20:18;3.60;;;3.33;;
51236;SDS011;37312;47.550;18.818;2022-07-25T12:22:46;4.65;;;4.25;;
51236;SDS011;37312;47.550;18.818;2022-07-25T12:25:13;4.95;;;3.45;;
51236;SDS011;37312;47.550;18.818;2022-07-25T12:27:39;4.00;;;3.40;;
51236;SDS011;37312;47.550;18.818;2022-07-25T12:30:06;3.87;;;3.58;;
51236;SDS011;37312;47.550;18.818;2022-07-25T12:32:33;4.18;;;3.75;;
51236;SDS011;37312;47.550;18.818;2022-07-25T12:34:59;4.90;;;3.78;;
51236;SDS011;37312;47.550;18.818;2022-07-25T12:37:26;5.22;;;2.95;;
51236;SDS011;37312;47.550;18.818;2022-07-25T12:39:52;4.65;;;3.85;;
51236;SDS011;37312;47.550;18.818;2022-07-25T12:42:18;5.43;;;4.40;;
51236;SDS011;37312;47.550;18.818;2022-07-25T12:44:45;3.92;;;3.62;;
51236;SDS011;37312;47.550;18.818;2022-07-25T12:47:11;2.90;;;2.67;;
51236;SDS011;37312;47.550;18.818;2022-07-25T12:49:37;5.03;;;3.47;;
51236;SDS011;37312;47.550;18.818;2022-07-25T12:52:03;4.40;;;4.10;;
51236;SDS011;37312;47.550;18.818;2022-07-25T12:54:29;5.05;;;3.85;;
51236;SDS011;37312;47.550;18.818;2022-07-25T12:56:55;7.18;;;3.83;;
51236;SDS011;37312;47.550;18.818;2022-07-25T12:59:21;3.78;;;3.47;;
51236;SDS011;37312;47.550;18.818;2022-07-25T13:01:48;3.47;;;3.17;;
51236;SDS011;37312;47.550;18.818;2022-07-25T13:04:14;4.12;;;3.75;;
51236;SDS011;37312;47.550;18.818;2022-07-25T13:06:40;6.22;;;3.17;;
51236;SDS011;37312;47.550;18.818;2022-07-25T13:09:06;3.47;;;3.28;;
51236;SDS011;37312;47.550;18.818;2022-07-25T13:11:32;4.25;;;3.95;;
51236;SDS011;37312;47.550;18.818;2022-07-25T13:13:58;4.35;;;4.03;;
51236;SDS011;37312;47.550;18.818;2022-07-25T13:16:24;4.37;;;4.03;;
51236;SDS011;37312;47.550;18.818;2022-07-25T13:18:50;4.87;;;3.47;;
51236;SDS011;37312;47.550;18.818;2022-07-25T13:21:16;4.57;;;4.15;;
51236;SDS011;37312;47.550;18.818;2022-07-25T13:23:44;5.85;;;3.80;;
51236;SDS011;37312;47.550;18.818;2022-07-25T13:26:10;5.25;;;3.53;;
51236;SDS011;37312;47.550;18.818;2022-07-25T13:28:36;8.52;;;4.45;;
51236;SDS011;37312;47.550;18.818;2022-07-25T13:31:02;6.22;;;4.32;;
51236;SDS011;37312;47.550;18.818;2022-07-25T13:33:31;7.72;;;4.72;;
51236;SDS011;37312;47.550;18.818;2022-07-25T13:35:58;5.72;;;3.80;;
51236;SDS011;37312;47.550;18.818;2022-07-25T13:38:24;3.97;;;3.58;;
51236;SDS011;37312;47.550;18.818;2022-07-25T13:40:50;7.32;;;4.05;;
51236;SDS011;37312;47.550;18.818;2022-07-25T13:43:16;4.55;;;4.20;;
51236;SDS011;37312;47.550;18.818;2022-07-25T13:45:42;5.03;;;4.12;;
51236;SDS011;37312;47.550;18.818;2022-07-25T13:48:08;4.15;;;3.75;;
51236;SDS011;37312;47.550;18.818;2022-07-25T13:50:34;4.72;;;3.95;;
51236;SDS011;37312;47.550;18.818;2022-07-25T13:53:01;7.35;;;4.07;;
51236;SDS011;37312;47.550;18.818;2022-07-25T13:55:30;4.18;;;3.62;;
51236;SDS011;37312;47.550;18.818;2022-07-25T13:57:56;4.47;;;4.05;;
51236;SDS011;37312;47.550;18.818;2022-07-25T14:02:48;3.78;;;3.47;;
51236;SDS011;37312;47.550;18.818;2022-07-25T14:05:14;3.75;;;3.40;;
51236;SDS011;37312;47.550;18.818;2022-07-25T14:07:41;4.20;;;3.90;;
51236;SDS011;37312;47.550;18.818;2022-07-25T14:10:08;4.47;;;4.07;;
51236;SDS011;37312;47.550;18.818;2022-07-25T14:12:34;3.40;;;3.20;;
51236;SDS011;37312;47.550;18.818;2022-07-25T14:15:01;4.85;;;4.37;;
51236;SDS011;37312;47.550;18.818;2022-07-25T14:17:27;8.32;;;4.45;;
51236;SDS011;37312;47.550;18.818;2022-07-25T14:19:53;3.65;;;3.35;;
51236;SDS011;37312;47.550;18.818;2022-07-25T14:22:19;3.35;;;3.15;;
51236;SDS011;37312;47.550;18.818;2022-07-25T14:24:45;4.47;;;3.75;;
51236;SDS011;37312;47.550;18.818;2022-07-25T14:27:11;3.67;;;3.47;;
51236;SDS011;37312;47.550;18.818;2022-07-25T14:29:37;5.45;;;3.67;;
51236;SDS011;37312;47.550;18.818;2022-07-25T14:32:04;4.05;;;3.65;;
51236;SDS011;37312;47.550;18.818;2022-07-25T14:34:31;3.97;;;3.25;;
51236;SDS011;37312;47.550;18.818;2022-07-25T14:36:58;5.05;;;4.65;;
51236;SDS011;37312;47.550;18.818;2022-07-25T14:39:24;9.13;;;4.22;;
51236;SDS011;37312;47.550;18.818;2022-07-25T14:41:50;4.28;;;3.72;;
51236;SDS011;37312;47.550;18.818;2022-07-25T14:44:16;4.47;;;3.85;;
51236;SDS011;37312;47.550;18.818;2022-07-25T14:46:42;4.85;;;3.92;;
51236;SDS011;37312;47.550;18.818;2022-07-25T14:49:11;3.87;;;3.12;;
51236;SDS011;37312;47.550;18.818;2022-07-25T14:51:39;4.18;;;3.87;;
51236;SDS011;37312;47.550;18.818;2022-07-25T14:54:05;3.83;;;3.37;;
51236;SDS011;37312;47.550;18.818;2022-07-25T14:56:31;3.97;;;3.70;;
51236;SDS011;37312;47.550;18.818;2022-07-25T14:58:57;4.15;;;3.75;;
51236;SDS011;37312;47.550;18.818;2022-07-25T15:01:23;3.95;;;3.75;;
51236;SDS011;37312;47.550;18.818;2022-07-25T15:03:50;3.37;;;3.17;;
51236;SDS011;37312;47.550;18.818;2022-07-25T15:06:17;5.55;;;3.15;;
51236;SDS011;37312;47.550;18.818;2022-07-25T15:08:43;3.95;;;3.62;;